createdAt,value
2023-01-06T00:00:36.307Z,7.32
2023-01-06T00:03:03.769Z,5.30
2023-01-06T00:05:31.294Z,5.72
2023-01-06T00:07:58.995Z,5.35
2023-01-06T00:10:25.970Z,5.07
2023-01-06T00:12:53.028Z,5.50
2023-01-06T00:15:20.379Z,4.75
2023-01-06T00:17:47.083Z,7.05
2023-01-06T00:20:14.120Z,6.28
2023-01-06T00:22:41.709Z,9.07
2023-01-06T00:25:11.743Z,9.30
2023-01-06T00:27:39.747Z,10.88
2023-01-06T00:30:07.692Z,10.95
2023-01-06T00:32:34.825Z,13.15
2023-01-06T00:35:01.491Z,14.10
2023-01-06T00:37:28.368Z,12.57
2023-01-06T00:39:54.973Z,16.30
2023-01-06T00:42:22.496Z,17.80
2023-01-06T00:44:49.350Z,15.75
2023-01-06T00:47:16.359Z,14.30
2023-01-06T00:49:43.201Z,20.10
2023-01-06T00:52:10.126Z,18.42
2023-01-06T00:54:37.124Z,21.17
2023-01-06T00:57:06.931Z,17.35
2023-01-06T00:59:33.873Z,19.73
2023-01-06T01:02:02.488Z,19.60
2023-01-06T01:04:29.259Z,18.35
2023-01-06T01:06:56.284Z,16.60
2023-01-06T01:09:26.160Z,20.55
2023-01-06T01:12:12.797Z,26.67
2023-01-06T01:14:47.253Z,19.80
2023-01-06T01:17:19.077Z,23.50
2023-01-06T01:19:47.153Z,21.55
2023-01-06T01:22:14.416Z,26.83
2023-01-06T01:24:41.229Z,25.27
2023-01-06T01:27:08.131Z,28.73
2023-01-06T01:29:34.853Z,33.78
2023-01-06T01:32:01.890Z,34.45
2023-01-06T01:34:28.513Z,34.63
2023-01-06T01:36:56.581Z,34.95
2023-01-06T01:39:26.081Z,40.15
2023-01-06T01:41:54.142Z,45.15
2023-01-06T01:44:59.752Z,38.08
2023-01-06T01:47:47.694Z,28.05
2023-01-06T01:50:32.024Z,30.80
2023-01-06T01:53:06.033Z,34.08
2023-01-06T01:55:34.083Z,34.47
2023-01-06T01:58:03.007Z,29.38
2023-01-06T02:00:29.615Z,26.00
2023-01-06T02:02:56.630Z,27.50
2023-01-06T02:05:26.805Z,23.55
2023-01-06T02:07:57.441Z,28.27
2023-01-06T02:10:26.093Z,18.23
2023-01-06T02:12:56.967Z,20.88
2023-01-06T02:15:29.265Z,26.45
2023-01-06T02:18:05.742Z,16.02
2023-01-06T02:20:43.067Z,14.35
2023-01-06T02:23:19.378Z,13.90
2023-01-06T02:26:23.568Z,12.23
2023-01-06T02:28:53.007Z,10.73
2023-01-06T02:31:23.652Z,7.80
2023-01-06T02:34:13.963Z,10.18
2023-01-06T02:37:04.058Z,13.05
2023-01-06T02:39:37.883Z,10.90
2023-01-06T02:42:20.055Z,5.20
2023-01-06T02:45:16.091Z,8.25
2023-01-06T02:47:59.211Z,6.90
2023-01-06T02:51:17.476Z,8.40
2023-01-06T02:54:10.652Z,4.60
2023-01-06T02:56:44.691Z,5.18
2023-01-06T02:59:23.115Z,6.28
2023-01-06T03:01:52.700Z,3.05
2023-01-06T03:04:24.712Z,5.15
2023-01-06T03:06:56.033Z,7.82
2023-01-06T03:09:28.830Z,3.65
2023-01-06T03:11:55.450Z,5.43
2023-01-06T03:14:35.244Z,5.10
2023-01-06T03:17:02.553Z,5.10
2023-01-06T03:19:31.323Z,5.32
2023-01-06T03:22:01.915Z,4.93
2023-01-06T03:24:28.838Z,6.50
2023-01-06T03:26:55.959Z,9.57
2023-01-06T03:29:23.586Z,5.55
2023-01-06T03:31:56.699Z,5.85
2023-01-06T03:34:32.059Z,7.18
2023-01-06T03:37:07.862Z,7.22
2023-01-06T03:40:09.640Z,9.25
2023-01-06T03:43:13.404Z,7.30
2023-01-06T03:46:11.575Z,7.30
2023-01-06T03:48:59.207Z,9.35
2023-01-06T03:52:05.338Z,7.55
2023-01-06T03:55:00.791Z,8.85
2023-01-06T03:57:37.196Z,9.30
2023-01-06T04:00:12.668Z,9.43
2023-01-06T04:02:48.355Z,9.85
2023-01-06T04:05:24.331Z,9.75
2023-01-06T04:07:51.929Z,9.90
2023-01-06T04:10:22.050Z,10.10
2023-01-06T04:12:52.393Z,10.40
2023-01-06T04:15:26.412Z,10.40
2023-01-06T04:17:55.838Z,11.52
2023-01-06T04:20:29.664Z,11.27
2023-01-06T04:23:11.196Z,11.27
2023-01-06T04:25:40.056Z,11.48
2023-01-06T04:28:13.965Z,11.68
2023-01-06T04:30:40.972Z,12.50
2023-01-06T04:33:07.803Z,12.23
2023-01-06T04:35:36.169Z,12.68
2023-01-06T04:38:05.787Z,12.25
2023-01-06T04:40:32.478Z,12.75
2023-01-06T04:43:04.924Z,13.98
2023-01-06T04:45:32.513Z,13.48
2023-01-06T04:47:59.311Z,14.05
2023-01-06T04:50:25.973Z,13.32
2023-01-06T04:52:52.598Z,13.00
2023-01-06T04:55:19.219Z,13.77
2023-01-06T04:57:45.826Z,13.38
2023-01-06T05:00:13.003Z,12.93
2023-01-06T05:02:39.594Z,13.27
2023-01-06T05:05:06.866Z,13.95
2023-01-06T05:07:33.655Z,14.23
2023-01-06T05:10:00.307Z,14.77
2023-01-06T05:12:27.063Z,14.63
2023-01-06T05:14:53.625Z,13.52
2023-01-06T05:17:20.319Z,14.18
2023-01-06T05:19:46.963Z,14.07
2023-01-06T05:22:13.582Z,13.98
2023-01-06T05:24:40.284Z,14.10
2023-01-06T05:27:08.118Z,14.07
2023-01-06T05:29:35.566Z,15.35
2023-01-06T05:32:02.427Z,15.25
2023-01-06T05:34:29.078Z,15.70
2023-01-06T05:36:56.442Z,15.82
2023-01-06T05:39:23.142Z,16.38
2023-01-06T05:41:50.145Z,17.27
2023-01-06T05:44:17.287Z,17.05
2023-01-06T05:46:44.963Z,16.40
2023-01-06T05:49:11.641Z,17.20
2023-01-06T05:51:38.238Z,17.77
2023-01-06T05:54:08.758Z,17.15
2023-01-06T05:56:36.073Z,17.95
2023-01-06T05:59:03.448Z,17.60
2023-01-06T06:01:31.770Z,17.70
2023-01-06T06:03:59.004Z,17.90
2023-01-06T06:06:27.732Z,17.15
2023-01-06T06:08:54.486Z,17.40
2023-01-06T06:11:22.351Z,17.83
2023-01-06T06:13:53.762Z,18.10
2023-01-06T06:16:23.437Z,17.20
2023-01-06T06:18:55.390Z,17.17
2023-01-06T06:21:25.185Z,17.17
2023-01-06T06:23:56.518Z,16.70
2023-01-06T06:26:23.913Z,17.02
2023-01-06T06:28:51.122Z,16.08
2023-01-06T06:31:26.328Z,16.00
2023-01-06T06:33:55.057Z,16.92
2023-01-06T06:36:21.985Z,16.25
2023-01-06T06:38:50.138Z,16.80
2023-01-06T06:41:17.233Z,16.15
2023-01-06T06:43:44.295Z,16.50
2023-01-06T06:46:11.764Z,21.73
2023-01-06T06:48:38.819Z,17.52
2023-01-06T06:51:08.340Z,16.20
2023-01-06T06:53:35.670Z,16.75
2023-01-06T06:56:03.867Z,16.90
2023-01-06T06:58:31.068Z,16.65
2023-01-06T07:00:57.830Z,17.00
2023-01-06T07:03:25.221Z,16.38
2023-01-06T07:05:52.575Z,16.13
2023-01-06T07:08:19.235Z,16.30
2023-01-06T07:10:46.276Z,16.30
2023-01-06T07:13:12.927Z,16.55
2023-01-06T07:15:39.897Z,16.83
2023-01-06T07:18:06.988Z,16.67
2023-01-06T07:20:36.071Z,16.15
2023-01-06T07:23:03.221Z,15.93
2023-01-06T07:25:30.487Z,16.88
2023-01-06T07:27:59.576Z,16.15
2023-01-06T07:30:27.561Z,16.60
2023-01-06T07:32:54.210Z,15.70
2023-01-06T07:35:20.894Z,16.45
2023-01-06T07:37:47.612Z,16.23
2023-01-06T07:40:14.731Z,16.40
2023-01-06T07:42:41.331Z,16.08
2023-01-06T07:45:08.693Z,14.95
2023-01-06T07:47:35.419Z,15.38
2023-01-06T07:50:02.905Z,16.35
2023-01-06T07:52:29.625Z,15.02
2023-01-06T07:54:59.213Z,14.48
2023-01-06T07:57:26.892Z,14.43
2023-01-06T07:59:53.517Z,14.75
2023-01-06T08:02:20.419Z,14.32
2023-01-06T08:04:47.305Z,15.35
2023-01-06T08:07:15.367Z,14.45
2023-01-06T08:09:42.108Z,14.77
2023-01-06T08:12:08.979Z,15.27
2023-01-06T08:14:35.591Z,15.50
2023-01-06T08:17:02.234Z,19.85
2023-01-06T08:19:29.220Z,19.17
2023-01-06T08:21:55.772Z,14.40
2023-01-06T08:24:22.479Z,14.35
2023-01-06T08:26:49.365Z,14.18
2023-01-06T08:29:16.054Z,13.75
2023-01-06T08:31:42.833Z,14.68
2023-01-06T08:34:11.349Z,13.85
2023-01-06T08:36:38.757Z,15.68
2023-01-06T08:39:05.333Z,13.65
2023-01-06T08:41:32.002Z,14.32
2023-01-06T08:43:58.645Z,13.57
2023-01-06T08:46:26.423Z,14.25
2023-01-06T08:48:53.164Z,14.02
2023-01-06T08:51:23.439Z,17.65
2023-01-06T08:53:50.965Z,16.50
2023-01-06T08:56:29.627Z,16.13
2023-01-06T08:59:01.625Z,15.95
2023-01-06T09:01:31.782Z,14.93
2023-01-06T09:04:00.781Z,15.20
2023-01-06T09:06:28.556Z,15.38
2023-01-06T09:08:56.360Z,15.02
2023-01-06T09:11:23.468Z,16.20
2023-01-06T09:13:51.077Z,15.38
2023-01-06T09:16:18.798Z,13.80
2023-01-06T09:18:49.561Z,13.25
2023-01-06T09:21:18.487Z,14.07
2023-01-06T09:23:45.774Z,14.30
2023-01-06T09:26:13.125Z,14.02
2023-01-06T09:28:41.078Z,14.32
2023-01-06T09:31:08.472Z,18.10
2023-01-06T09:33:35.541Z,13.20
2023-01-06T09:36:05.183Z,12.80
2023-01-06T09:38:31.837Z,13.73
2023-01-06T09:41:12.115Z,12.75
2023-01-06T09:43:56.844Z,12.70
2023-01-06T09:46:32.067Z,12.30
2023-01-06T09:49:19.955Z,10.82
2023-01-06T09:51:46.744Z,9.60
2023-01-06T09:54:30.674Z,10.18
2023-01-06T09:57:05.140Z,11.55
2023-01-06T09:59:42.010Z,9.98
2023-01-06T10:02:21.093Z,9.55
2023-01-06T10:04:47.771Z,9.88
2023-01-06T10:07:37.926Z,9.30
2023-01-06T10:10:22.034Z,7.47
2023-01-06T10:13:30.356Z,10.40
2023-01-06T10:16:04.551Z,10.75
2023-01-06T10:18:51.616Z,10.88
2023-01-06T10:22:04.626Z,10.00
2023-01-06T10:24:40.132Z,10.50
2023-01-06T10:27:32.419Z,11.73
2023-01-06T10:30:01.088Z,10.88
2023-01-06T10:32:32.375Z,9.23
2023-01-06T10:35:00.462Z,9.00
2023-01-06T10:37:36.973Z,7.82
2023-01-06T10:40:17.693Z,8.15
2023-01-06T10:43:03.544Z,7.32
2023-01-06T10:45:47.354Z,7.00
2023-01-06T10:48:20.207Z,7.57
2023-01-06T10:50:47.467Z,7.47
2023-01-06T10:53:16.202Z,7.45
2023-01-06T10:55:54.848Z,8.45
2023-01-06T10:58:30.505Z,8.85
2023-01-06T11:01:01.003Z,8.25
2023-01-06T11:03:33.866Z,8.88
2023-01-06T11:06:08.462Z,7.05
2023-01-06T11:08:37.472Z,7.03
2023-01-06T11:11:16.646Z,8.40
2023-01-06T11:14:03.415Z,9.48
2023-01-06T11:16:35.811Z,10.73
2023-01-06T11:19:08.526Z,7.20
2023-01-06T11:21:49.092Z,5.68
2023-01-06T11:24:22.938Z,4.45
2023-01-06T11:26:55.324Z,4.38
2023-01-06T11:29:28.485Z,3.85
2023-01-06T11:31:57.207Z,4.80
2023-01-06T11:34:28.966Z,5.03
2023-01-06T11:36:56.878Z,4.55
2023-01-06T11:39:31.521Z,13.00
2023-01-06T11:42:04.879Z,6.07
2023-01-06T11:44:34.901Z,4.65
2023-01-06T11:47:24.870Z,7.88
2023-01-06T11:50:00.879Z,5.88
2023-01-06T11:52:38.120Z,9.60
2023-01-06T11:55:08.035Z,7.30
2023-01-06T11:58:04.048Z,7.35
2023-01-06T12:00:47.831Z,5.20
2023-01-06T12:03:17.666Z,6.40
2023-01-06T12:06:21.917Z,5.22
2023-01-06T12:09:12.702Z,4.65
2023-01-06T12:11:53.937Z,6.82
2023-01-06T12:14:28.860Z,5.75
2023-01-06T12:17:06.779Z,8.02
2023-01-06T12:19:45.340Z,7.05
2023-01-06T12:22:30.827Z,8.20
2023-01-06T12:27:49.333Z,8.05
2023-01-06T12:30:42.316Z,8.77
2023-01-06T12:33:26.287Z,10.57
2023-01-06T12:36:03.784Z,8.98
2023-01-06T12:38:56.343Z,8.77
2023-01-06T12:41:39.750Z,9.27
2023-01-06T12:44:30.700Z,9.48
2023-01-06T12:47:16.121Z,9.85
2023-01-06T12:52:57.240Z,13.15
2023-01-06T12:55:41.051Z,12.27
2023-01-06T12:58:21.732Z,13.32
2023-01-06T13:01:04.877Z,16.50
2023-01-06T13:03:47.147Z,11.70
2023-01-06T13:06:25.883Z,12.73
2023-01-06T13:09:10.259Z,12.75
2023-01-06T13:11:59.035Z,14.77
2023-01-06T13:15:13.655Z,11.00
2023-01-06T13:17:58.825Z,16.70
2023-01-06T13:20:31.012Z,14.23
2023-01-06T13:23:13.687Z,14.75
2023-01-06T13:26:06.144Z,15.95
2023-01-06T13:28:56.723Z,13.07
2023-01-06T13:31:32.146Z,13.27
2023-01-06T13:34:27.623Z,12.38
2023-01-06T13:37:24.443Z,12.55
2023-01-06T13:40:01.880Z,13.55
2023-01-06T13:42:34.979Z,14.95
2023-01-06T13:45:03.661Z,13.63
2023-01-06T13:47:30.859Z,17.70
2023-01-06T13:49:58.888Z,15.60
2023-01-06T13:52:28.928Z,14.65
2023-01-06T13:55:02.387Z,17.63
2023-01-06T13:57:34.902Z,16.60
2023-01-06T14:00:04.517Z,14.77
2023-01-06T14:02:38.643Z,15.48
2023-01-06T14:05:28.431Z,15.55
2023-01-06T14:08:03.151Z,16.30
2023-01-06T14:10:39.909Z,16.42
2023-01-06T14:13:17.955Z,15.05
2023-01-06T14:16:12.058Z,14.07
2023-01-06T14:18:44.947Z,14.93
2023-01-06T14:21:14.613Z,13.07
2023-01-06T14:23:58.424Z,14.50
2023-01-06T14:26:46.614Z,13.93
2023-01-06T14:29:44.787Z,13.90
2023-01-06T14:32:14.405Z,13.73
2023-01-06T14:34:54.248Z,13.02
2023-01-06T14:37:26.309Z,14.82
2023-01-06T14:39:55.912Z,14.38
2023-01-06T14:42:41.962Z,12.70
2023-01-06T14:45:26.778Z,12.88
2023-01-06T14:48:00.611Z,14.88
2023-01-06T14:50:45.488Z,14.38
2023-01-06T14:53:26.387Z,14.20
2023-01-06T14:55:54.415Z,12.90
2023-01-06T14:58:36.574Z,14.70
2023-01-06T15:01:04.400Z,15.43
2023-01-06T15:03:31.929Z,13.80
2023-01-06T15:06:20.813Z,15.75
2023-01-06T15:08:48.516Z,18.23
2023-01-06T15:11:21.327Z,14.00
2023-01-06T15:13:48.419Z,13.18
2023-01-06T15:16:15.270Z,24.00
2023-01-06T15:18:44.201Z,14.73
2023-01-06T15:21:13.374Z,12.88
2023-01-06T15:23:47.289Z,13.48
2023-01-06T15:26:28.733Z,14.32
2023-01-06T15:29:05.067Z,14.98
2023-01-06T15:31:37.444Z,13.80
2023-01-06T15:34:42.585Z,14.60
2023-01-06T15:37:17.512Z,13.00
2023-01-06T15:39:44.471Z,14.82
2023-01-06T15:42:13.196Z,16.00
2023-01-06T15:44:40.197Z,15.48
2023-01-06T15:47:12.802Z,15.45
2023-01-06T15:49:53.220Z,23.70
2023-01-06T15:52:29.825Z,16.55
2023-01-06T15:55:00.559Z,16.42
2023-01-06T15:57:31.598Z,19.20
2023-01-06T16:00:05.655Z,13.75
2023-01-06T16:02:33.396Z,17.37
2023-01-06T16:05:01.186Z,14.38
2023-01-06T16:07:41.600Z,18.17
2023-01-06T16:10:36.969Z,18.15
2023-01-06T16:13:27.913Z,19.05
2023-01-06T16:16:07.121Z,19.15
2023-01-06T16:18:36.505Z,21.13
2023-01-06T16:21:34.359Z,17.25
2023-01-06T16:24:05.682Z,19.92
2023-01-06T16:26:40.011Z,20.42
2023-01-06T16:29:33.089Z,25.98
2023-01-06T16:32:28.960Z,21.10
2023-01-06T16:35:00.943Z,21.08
2023-01-06T16:37:32.112Z,19.10
2023-01-06T16:39:59.260Z,14.20
2023-01-06T16:42:39.312Z,17.58
2023-01-06T16:45:12.935Z,24.00
2023-01-06T16:47:40.731Z,30.92
2023-01-06T16:50:17.448Z,29.02
2023-01-06T16:52:47.074Z,25.75
2023-01-06T16:55:16.120Z,35.25
2023-01-06T16:57:49.870Z,20.15
2023-01-06T17:00:22.142Z,19.52
2023-01-06T17:02:50.259Z,15.55
2023-01-06T17:05:26.778Z,15.82
2023-01-06T17:07:57.957Z,19.90
2023-01-06T17:10:25.112Z,17.50
2023-01-06T17:13:22.176Z,18.90
2023-01-06T17:15:59.085Z,14.80
2023-01-06T17:18:28.197Z,18.17
2023-01-06T17:21:11.942Z,14.45
2023-01-06T17:23:44.357Z,11.95
2023-01-06T17:26:14.678Z,12.23
2023-01-06T17:28:43.063Z,11.95
2023-01-06T17:31:21.055Z,12.70
2023-01-06T17:33:47.795Z,9.55
2023-01-06T17:36:25.356Z,12.18
2023-01-06T17:38:52.455Z,11.30
2023-01-06T17:41:19.665Z,13.95
2023-01-06T17:43:47.020Z,12.38
2023-01-06T17:46:19.052Z,9.98
2023-01-06T17:48:47.453Z,10.52
2023-01-06T17:51:16.163Z,9.23
2023-01-06T17:54:01.374Z,8.68
2023-01-06T17:56:28.027Z,10.40
2023-01-06T17:58:54.666Z,14.52
2023-01-06T18:01:27.005Z,11.52
2023-01-06T18:03:56.609Z,13.38
2023-01-06T18:06:30.304Z,17.83
2023-01-06T18:09:11.127Z,14.38
2023-01-06T18:11:38.790Z,10.85
2023-01-06T18:14:18.003Z,11.15
2023-01-06T18:16:46.995Z,11.05
2023-01-06T18:19:27.726Z,9.90
2023-01-06T18:21:54.938Z,8.65
2023-01-06T18:24:40.361Z,10.10
2023-01-06T18:27:21.803Z,12.45
2023-01-06T18:29:48.710Z,10.88
2023-01-06T18:32:21.386Z,9.20
2023-01-06T18:34:50.046Z,9.52
2023-01-06T18:37:17.588Z,11.93
2023-01-06T18:39:49.574Z,12.35
2023-01-06T18:42:23.946Z,11.95
2023-01-06T18:45:08.870Z,11.60
2023-01-06T18:47:41.688Z,9.57
2023-01-06T18:50:34.341Z,11.63
2023-01-06T18:53:29.834Z,14.30
2023-01-06T18:56:02.750Z,13.27
2023-01-06T18:58:50.263Z,14.70
2023-01-06T19:01:21.520Z,15.05
2023-01-06T19:03:57.181Z,16.27
2023-01-06T19:06:29.784Z,17.33
2023-01-06T19:08:57.087Z,16.38
2023-01-06T19:11:26.431Z,19.73
2023-01-06T19:14:03.543Z,16.90
2023-01-06T19:16:49.215Z,18.58
2023-01-06T19:19:24.361Z,18.83
2023-01-06T19:21:52.177Z,18.13
2023-01-06T19:24:28.228Z,17.42
2023-01-06T19:26:59.479Z,13.73
2023-01-06T19:29:30.748Z,12.70
2023-01-06T19:32:00.565Z,12.70
2023-01-06T19:34:27.195Z,15.35
2023-01-06T19:36:56.722Z,15.85
2023-01-06T19:39:43.262Z,14.48
2023-01-06T19:42:29.472Z,25.33
2023-01-06T19:45:08.711Z,21.33
2023-01-06T19:47:41.549Z,17.17
2023-01-06T19:50:23.238Z,14.63
2023-01-06T19:52:56.799Z,13.02
2023-01-06T19:55:32.354Z,14.90
2023-01-06T19:58:12.410Z,16.65
2023-01-06T20:00:54.165Z,16.42
2023-01-06T20:03:30.233Z,20.42
2023-01-06T20:05:56.992Z,18.08
2023-01-06T20:08:23.728Z,23.33
2023-01-06T20:10:50.389Z,26.77
2023-01-06T20:13:17.134Z,16.10
2023-01-06T20:15:43.815Z,15.00
2023-01-06T20:18:10.468Z,26.65
2023-01-06T20:20:37.070Z,33.17
2023-01-06T20:23:03.837Z,31.88
2023-01-06T20:25:30.446Z,24.45
2023-01-06T20:27:57.078Z,19.55
2023-01-06T20:30:23.755Z,12.52
2023-01-06T20:32:50.378Z,16.55
2023-01-06T20:35:17.179Z,17.75
2023-01-06T20:37:43.838Z,12.23
2023-01-06T20:40:10.737Z,22.95
2023-01-06T20:42:37.461Z,27.90
2023-01-06T20:45:05.152Z,37.92
2023-01-06T20:47:31.797Z,53.53
2023-01-06T20:49:58.467Z,20.00
2023-01-06T20:52:25.029Z,16.50
2023-01-06T20:54:51.681Z,15.13
2023-01-06T20:57:18.353Z,21.40
2023-01-06T20:59:44.930Z,16.00
2023-01-06T21:02:11.703Z,11.02
2023-01-06T21:04:38.447Z,16.25
2023-01-06T21:07:05.104Z,13.27
2023-01-06T21:09:31.744Z,14.52
2023-01-06T21:11:58.376Z,34.03
2023-01-06T21:14:24.999Z,11.60
2023-01-06T21:16:51.831Z,21.27
2023-01-06T21:19:18.514Z,29.02
2023-01-06T21:21:45.483Z,21.98
2023-01-06T21:24:12.094Z,20.13
2023-01-06T21:26:38.705Z,19.17
2023-01-06T21:29:05.304Z,18.25
2023-01-06T21:31:31.993Z,14.85
2023-01-06T21:33:58.629Z,17.38
2023-01-06T21:36:25.228Z,14.68
2023-01-06T21:38:51.839Z,17.85
2023-01-06T21:41:37.181Z,17.75
2023-01-06T21:46:30.491Z,13.55
2023-01-06T21:48:57.135Z,12.43
2023-01-06T21:51:24.043Z,12.90
2023-01-06T21:53:50.767Z,11.10
2023-01-06T21:56:17.410Z,12.15
2023-01-06T21:58:44.088Z,11.68
2023-01-06T22:01:10.880Z,9.70
2023-01-06T22:03:37.605Z,9.93
2023-01-06T22:06:05.500Z,9.63
2023-01-06T22:08:33.020Z,12.02
2023-01-06T22:10:59.875Z,10.25
2023-01-06T22:13:27.512Z,10.80
2023-01-06T22:15:54.313Z,11.57
2023-01-06T22:18:21.146Z,10.43
2023-01-06T22:20:47.805Z,10.55
2023-01-06T22:23:18.435Z,9.40
2023-01-06T22:25:45.253Z,6.90
2023-01-06T22:28:12.242Z,6.47
2023-01-06T22:30:38.928Z,6.95
2023-01-06T22:33:05.580Z,6.43
2023-01-06T22:35:32.400Z,8.82
2023-01-06T22:37:59.359Z,7.28
2023-01-06T22:40:26.103Z,5.03
2023-01-06T22:42:52.885Z,4.93
2023-01-06T22:45:19.715Z,5.68
2023-01-06T22:47:46.338Z,5.72
2023-01-06T22:50:12.931Z,5.00
2023-01-06T22:52:39.620Z,4.90
2023-01-06T22:55:06.887Z,5.60
2023-01-06T22:57:33.530Z,4.90
2023-01-06T23:00:00.294Z,5.15
2023-01-06T23:02:27.346Z,5.93
2023-01-06T23:04:54.083Z,4.90
2023-01-06T23:07:21.135Z,3.58
2023-01-06T23:09:47.848Z,4.88
2023-01-06T23:12:14.612Z,3.28
2023-01-06T23:14:41.182Z,3.72
2023-01-06T23:17:07.787Z,4.32
2023-01-06T23:19:34.406Z,5.40
2023-01-06T23:22:01.006Z,4.28
2023-01-06T23:24:27.677Z,4.40
2023-01-06T23:26:54.368Z,3.05
2023-01-06T23:29:20.986Z,2.30
2023-01-06T23:31:47.739Z,4.85
2023-01-06T23:34:16.878Z,1.60
2023-01-06T23:36:44.287Z,1.95
2023-01-06T23:39:14.163Z,1.52
2023-01-06T23:41:41.051Z,2.00
2023-01-06T23:44:09.340Z,1.95
2023-01-06T23:46:38.580Z,2.60
2023-01-06T23:49:06.437Z,2.08
2023-01-06T23:51:33.673Z,5.68
2023-01-06T23:54:01.911Z,2.00
2023-01-06T23:56:31.140Z,2.00
2023-01-06T23:59:01.200Z,2.35
